createdAt,value
2018-11-20T00:00:32.287Z,12.13
2018-11-20T00:03:21.146Z,12.53
2018-11-20T00:05:59.793Z,13.30
2018-11-20T00:08:48.957Z,12.67
2018-11-20T00:11:37.160Z,10.58
2018-11-20T00:14:19.446Z,11.77
2018-11-20T00:17:07.578Z,12.47
2018-11-20T00:19:53.835Z,11.90
2018-11-20T00:22:49.951Z,11.20
2018-11-20T00:25:42.271Z,10.50
2018-11-20T00:28:46.632Z,11.13
2018-11-20T00:31:26.565Z,12.00
2018-11-20T00:34:11.817Z,11.67
2018-11-20T00:36:54.629Z,10.80
2018-11-20T00:39:46.751Z,11.00
2018-11-20T00:42:35.285Z,11.47
2018-11-20T00:45:36.844Z,11.40
2018-11-20T00:48:27.670Z,11.27
2018-11-20T00:51:08.767Z,12.33
2018-11-20T00:53:50.561Z,12.53
2018-11-20T00:56:56.735Z,11.40
2018-11-20T00:59:38.594Z,12.77
2018-11-20T01:02:20.738Z,11.77
2018-11-20T01:05:18.641Z,11.57
2018-11-20T01:08:06.788Z,10.80
2018-11-20T01:10:54.964Z,11.00
2018-11-20T01:13:47.644Z,12.10
2018-11-20T01:16:40.250Z,9.87
2018-11-20T01:19:28.473Z,10.67
2018-11-20T01:22:13.170Z,11.43
2018-11-20T01:25:11.539Z,12.27
2018-11-20T01:27:56.615Z,10.13
2018-11-20T01:30:44.734Z,13.10
2018-11-20T01:33:22.550Z,10.47
2018-11-20T01:36:10.920Z,10.73
2018-11-20T01:38:58.692Z,11.83
2018-11-20T01:41:57.280Z,11.23
2018-11-20T01:44:37.992Z,11.17
2018-11-20T01:47:42.411Z,11.67
2018-11-20T01:50:22.489Z,11.07
2018-11-20T01:53:05.085Z,12.23
2018-11-20T01:55:52.884Z,10.83
2018-11-20T01:58:36.484Z,12.30
2018-11-20T02:01:24.566Z,12.00
2018-11-20T02:04:19.628Z,11.17
2018-11-20T02:07:01.524Z,11.17
2018-11-20T02:10:01.589Z,11.43
2018-11-20T02:13:02.900Z,11.43
2018-11-20T02:15:55.227Z,11.73
2018-11-20T02:18:50.937Z,10.53
2018-11-20T02:21:49.348Z,11.90
2018-11-20T02:24:38.060Z,10.50
2018-11-20T02:27:22.124Z,10.23
2018-11-20T02:30:10.336Z,11.90
2018-11-20T02:32:58.030Z,11.60
2018-11-20T02:36:02.174Z,11.17
2018-11-20T02:38:50.596Z,11.83
2018-11-20T02:41:39.525Z,11.27
2018-11-20T02:44:23.706Z,12.10
2018-11-20T02:47:09.529Z,11.70
2018-11-20T02:49:57.892Z,12.43
2018-11-20T02:52:43.399Z,13.50
2018-11-20T02:55:27.776Z,13.00
2018-11-20T02:58:15.483Z,12.37
2018-11-20T03:01:03.801Z,12.63
2018-11-20T03:03:51.885Z,11.53
2018-11-20T03:06:57.403Z,12.57
2018-11-20T03:09:40.138Z,12.13
2018-11-20T03:12:21.193Z,12.93
2018-11-20T03:15:10.360Z,13.57
2018-11-20T03:18:08.451Z,12.33
2018-11-20T03:20:49.111Z,13.43
2018-11-20T03:23:36.951Z,12.63
2018-11-20T03:26:35.636Z,12.67
2018-11-20T03:30:18.056Z,11.23
2018-11-20T03:33:22.252Z,14.37
2018-11-20T03:36:21.559Z,12.77
2018-11-20T03:39:08.992Z,13.03
2018-11-20T03:41:53.371Z,13.33
2018-11-20T03:44:46.608Z,13.07
2018-11-20T03:47:26.675Z,13.50
2018-11-20T03:50:08.051Z,12.67
2018-11-20T03:53:15.868Z,12.77
2018-11-20T03:55:56.520Z,13.97
2018-11-20T03:58:45.698Z,13.60
2018-11-20T04:01:38.035Z,13.23
2018-11-20T04:04:45.510Z,12.43
2018-11-20T04:07:46.644Z,13.37
2018-11-20T04:10:40.819Z,13.73
2018-11-20T04:13:27.861Z,13.93
2018-11-20T04:16:13.795Z,14.10
2018-11-20T04:18:56.888Z,14.00
2018-11-20T04:21:46.879Z,13.90
2018-11-20T04:24:33.950Z,14.47
2018-11-20T04:27:22.348Z,13.80
2018-11-20T04:30:59.337Z,12.80
2018-11-20T04:34:12.851Z,13.00
2018-11-20T04:37:28.116Z,13.27
2018-11-20T04:40:17.544Z,13.17
2018-11-20T04:43:12.718Z,13.30
2018-11-20T04:46:07.676Z,12.20
2018-11-20T04:48:55.308Z,14.63
2018-11-20T04:51:43.070Z,13.33
2018-11-20T04:54:31.093Z,13.50
2018-11-20T04:57:23.144Z,13.85
2018-11-20T05:00:11.718Z,13.50
2018-11-20T05:03:00.067Z,13.00
2018-11-20T05:05:46.151Z,14.43
2018-11-20T05:08:34.146Z,12.67
2018-11-20T05:11:13.452Z,12.90
2018-11-20T05:14:01.109Z,13.93
2018-11-20T05:16:51.152Z,13.00
2018-11-20T05:19:52.845Z,13.60
2018-11-20T05:22:39.304Z,13.03
2018-11-20T05:25:18.144Z,13.72
2018-11-20T05:28:00.402Z,13.67
2018-11-20T05:30:49.630Z,15.47
2018-11-20T05:33:37.673Z,13.93
2018-11-20T05:36:25.261Z,12.17
2018-11-20T05:39:06.242Z,12.73
2018-11-20T05:41:44.683Z,15.43
2018-11-20T05:44:25.067Z,13.30
2018-11-20T05:47:12.806Z,13.63
2018-11-20T05:50:11.536Z,14.67
2018-11-20T05:52:55.435Z,15.97
2018-11-20T05:55:36.080Z,15.03
2018-11-20T05:58:22.817Z,13.63
2018-11-20T06:01:07.848Z,14.70
2018-11-20T06:03:49.748Z,14.00
2018-11-20T06:07:08.712Z,14.10
2018-11-20T06:09:55.423Z,16.20
2018-11-20T06:12:46.474Z,14.77
2018-11-20T06:15:34.706Z,13.70
2018-11-20T06:18:26.279Z,15.43
2018-11-20T06:21:14.796Z,14.33
2018-11-20T06:24:01.731Z,14.47
2018-11-20T06:27:02.496Z,15.90
2018-11-20T06:29:48.980Z,17.00
2018-11-20T06:32:28.235Z,13.73
2018-11-20T06:35:15.297Z,14.87
2018-11-20T06:38:02.079Z,13.83
2018-11-20T06:40:48.684Z,15.40
2018-11-20T06:43:35.320Z,15.33
2018-11-20T06:46:22.677Z,17.90
2018-11-20T06:49:14.555Z,14.40
2018-11-20T06:52:01.020Z,16.33
2018-11-20T06:54:45.046Z,17.07
2018-11-20T06:57:32.541Z,15.90
2018-11-20T07:00:39.007Z,16.33
2018-11-20T07:03:25.846Z,14.93
2018-11-20T07:06:10.986Z,14.67
2018-11-20T07:09:05.722Z,14.30
2018-11-20T07:11:52.829Z,18.23
2018-11-20T07:14:39.574Z,15.27
2018-11-20T07:17:30.947Z,17.33
2018-11-20T07:20:16.988Z,15.70
2018-11-20T07:23:04.324Z,15.57
2018-11-20T07:25:42.530Z,14.73
2018-11-20T07:28:29.062Z,14.70
2018-11-20T07:31:15.622Z,17.20
2018-11-20T07:34:02.653Z,16.07
2018-11-20T07:36:52.235Z,15.33
2018-11-20T07:39:49.730Z,13.80
2018-11-20T07:42:36.598Z,15.63
2018-11-20T07:45:24.967Z,15.00
2018-11-20T07:48:11.379Z,16.13
2018-11-20T07:50:59.442Z,14.13
2018-11-20T07:53:41.992Z,15.50
2018-11-20T07:56:28.528Z,14.30
2018-11-20T07:59:16.720Z,15.37
2018-11-20T08:02:03.186Z,14.80
2018-11-20T08:04:39.535Z,15.97
2018-11-20T08:07:35.970Z,15.73
2018-11-20T08:10:22.550Z,13.93
2018-11-20T08:13:09.498Z,14.43
2018-11-20T08:15:52.952Z,15.10
2018-11-20T08:18:39.614Z,16.43
2018-11-20T08:21:22.032Z,14.37
2018-11-20T08:24:16.780Z,15.70
2018-11-20T08:26:56.271Z,13.93
2018-11-20T08:29:39.185Z,15.43
2018-11-20T08:32:24.063Z,14.03
2018-11-20T08:35:03.287Z,15.93
2018-11-20T08:37:57.281Z,18.30
2018-11-20T08:40:41.774Z,15.63
2018-11-20T08:43:32.241Z,14.97
2018-11-20T08:46:29.966Z,13.80
2018-11-20T08:49:17.233Z,14.80
2018-11-20T08:52:10.883Z,14.13
2018-11-20T08:54:55.743Z,15.13
2018-11-20T08:57:37.848Z,16.57
2018-11-20T09:00:25.888Z,13.90
2018-11-20T09:03:03.476Z,16.23
2018-11-20T09:05:48.351Z,17.37
2018-11-20T09:08:48.993Z,14.27
2018-11-20T09:11:41.448Z,15.27
2018-11-20T09:14:28.959Z,15.03
2018-11-20T09:17:22.725Z,14.87
2018-11-20T09:20:13.538Z,14.97
2018-11-20T09:23:10.745Z,16.53
2018-11-20T09:25:59.550Z,18.47
2018-11-20T09:28:37.439Z,14.77
2018-11-20T09:31:26.149Z,15.37
2018-11-20T09:34:17.192Z,14.03
2018-11-20T09:37:04.474Z,15.27
2018-11-20T09:39:52.438Z,15.33
2018-11-20T09:42:31.825Z,14.50
2018-11-20T09:45:49.750Z,15.07
2018-11-20T09:48:48.849Z,15.80
2018-11-20T09:51:35.620Z,15.57
2018-11-20T09:54:22.708Z,16.00
2018-11-20T09:57:19.599Z,16.30
2018-11-20T10:00:05.950Z,16.17
2018-11-20T10:02:44.130Z,15.30
2018-11-20T10:05:23.325Z,19.10
2018-11-20T10:08:03.199Z,16.30
2018-11-20T10:10:41.657Z,16.17
2018-11-20T10:13:28.327Z,17.30
2018-11-20T10:16:15.504Z,19.13
2018-11-20T10:19:01.939Z,17.23
2018-11-20T10:22:02.336Z,17.45
2018-11-20T10:24:49.462Z,17.83
2018-11-20T10:27:27.626Z,16.93
2018-11-20T10:30:14.301Z,18.07
2018-11-20T10:32:56.904Z,16.83
2018-11-20T10:35:31.478Z,19.23
2018-11-20T10:38:22.107Z,17.97
2018-11-20T10:41:15.435Z,17.43
2018-11-20T10:44:12.078Z,19.20
2018-11-20T10:46:52.336Z,18.77
2018-11-20T10:49:39.951Z,19.33
2018-11-20T10:52:15.810Z,23.03
2018-11-20T10:54:55.900Z,20.07
2018-11-20T10:57:41.334Z,18.20
2018-11-20T11:00:18.099Z,20.27
2018-11-20T11:03:05.424Z,18.83
2018-11-20T11:05:51.898Z,19.35
2018-11-20T11:08:40.736Z,20.73
2018-11-20T11:11:31.879Z,19.93
2018-11-20T11:14:18.759Z,23.10
2018-11-20T11:17:05.397Z,19.73
2018-11-20T11:20:00.544Z,20.87
2018-11-20T11:22:47.497Z,21.10
2018-11-20T11:25:34.974Z,21.23
2018-11-20T11:28:21.858Z,19.83
2018-11-20T11:31:25.028Z,20.23
2018-11-20T11:34:22.001Z,26.93
2018-11-20T11:37:01.485Z,24.57
2018-11-20T11:39:42.663Z,27.00
2018-11-20T11:42:29.427Z,22.73
2018-11-20T11:45:21.820Z,21.83
2018-11-20T11:48:07.766Z,21.57
2018-11-20T11:51:03.630Z,24.70
2018-11-20T11:53:54.833Z,23.67
2018-11-20T11:56:47.720Z,22.30
2018-11-20T11:59:43.014Z,21.33
2018-11-20T12:05:12.825Z,25.97
2018-11-20T12:07:59.155Z,24.17
2018-11-20T12:10:39.388Z,21.50
2018-11-20T12:13:30.879Z,22.00
2018-11-20T12:16:17.939Z,23.17
2018-11-20T12:19:11.835Z,24.63
2018-11-20T12:22:00.285Z,20.67
2018-11-20T12:24:48.080Z,22.03
2018-11-20T12:27:42.382Z,24.83
2018-11-20T12:30:21.951Z,24.23
2018-11-20T12:33:02.912Z,26.43
2018-11-20T12:35:49.984Z,21.73
2018-11-20T12:38:43.328Z,20.93
2018-11-20T12:41:34.914Z,25.23
2018-11-20T12:44:30.442Z,27.10
2018-11-20T12:47:15.102Z,25.73
2018-11-20T12:49:47.642Z,26.10
2018-11-20T12:52:33.968Z,21.80
2018-11-20T12:55:24.733Z,24.03
2018-11-20T12:58:11.240Z,25.13
2018-11-20T13:00:59.256Z,27.07
2018-11-20T13:03:45.475Z,23.83
2018-11-20T13:06:39.505Z,23.83
2018-11-20T13:09:40.990Z,24.40
2018-11-20T13:12:39.425Z,21.77
2018-11-20T13:15:30.835Z,23.90
2018-11-20T13:18:20.206Z,27.00
2018-11-20T13:21:06.660Z,22.93
2018-11-20T13:24:00.169Z,27.73
2018-11-20T13:26:51.332Z,25.40
2018-11-20T13:29:39.247Z,21.43
2018-11-20T13:32:31.292Z,24.33
2018-11-20T13:35:10.378Z,23.67
2018-11-20T13:38:04.847Z,23.57
2018-11-20T13:41:55.595Z,21.83
2018-11-20T13:44:55.408Z,21.67
2018-11-20T13:47:43.698Z,24.07
2018-11-20T13:50:31.968Z,20.67
2018-11-20T13:53:22.132Z,22.50
2018-11-20T13:56:19.484Z,21.73
2018-11-20T13:59:08.818Z,22.87
2018-11-20T14:02:00.557Z,22.53
2018-11-20T14:04:47.366Z,22.40
2018-11-20T14:07:41.561Z,25.20
2018-11-20T14:10:37.172Z,22.47
2018-11-20T14:13:34.028Z,22.20
2018-11-20T14:16:11.258Z,26.70
2018-11-20T14:19:00.930Z,25.87
2018-11-20T14:21:47.592Z,26.48
2018-11-20T14:24:34.314Z,25.57
2018-11-20T14:27:21.393Z,25.60
2018-11-20T14:30:12.663Z,23.73
2018-11-20T14:32:58.421Z,21.43
2018-11-20T14:35:42.875Z,24.67
2018-11-20T14:38:29.637Z,27.63
2018-11-20T14:41:20.828Z,26.07
2018-11-20T14:44:04.496Z,22.30
2018-11-20T14:46:54.041Z,23.40
2018-11-20T14:50:00.860Z,25.60
2018-11-20T14:52:47.455Z,23.57
2018-11-20T14:55:34.231Z,22.37
2018-11-20T14:58:34.347Z,21.87
2018-11-20T15:01:20.609Z,20.60
2018-11-20T15:04:07.476Z,20.87
2018-11-20T15:07:01.313Z,22.60
2018-11-20T15:09:52.408Z,21.33
2018-11-20T15:12:35.174Z,19.10
2018-11-20T15:15:15.706Z,20.83
2018-11-20T15:18:18.671Z,24.37
2018-11-20T15:21:19.191Z,20.80
2018-11-20T15:24:01.227Z,19.00
2018-11-20T15:26:46.757Z,18.52
2018-11-20T15:29:34.052Z,18.33
2018-11-20T15:32:20.550Z,18.00
2018-11-20T15:35:11.248Z,16.80
2018-11-20T15:37:50.505Z,16.37
2018-11-20T15:40:27.546Z,17.50
2018-11-20T15:43:14.899Z,16.97
2018-11-20T15:46:02.903Z,17.40
2018-11-20T15:48:50.551Z,15.60
2018-11-20T15:51:56.714Z,16.00
2018-11-20T15:54:43.174Z,15.10
2018-11-20T15:57:33.915Z,15.53
2018-11-20T16:00:22.263Z,15.47
2018-11-20T16:03:25.410Z,15.10
2018-11-20T16:06:07.733Z,16.42
2018-11-20T16:08:55.993Z,15.00
2018-11-20T16:11:38.827Z,14.63
2018-11-20T16:14:24.708Z,14.70
2018-11-20T16:17:22.689Z,14.13
2018-11-20T16:20:10.921Z,14.20
2018-11-20T16:22:53.461Z,15.03
2018-11-20T16:25:39.959Z,16.07
2018-11-20T16:28:24.844Z,15.23
2018-11-20T16:31:02.769Z,15.80
2018-11-20T16:33:49.727Z,15.13
2018-11-20T16:36:44.218Z,13.40
2018-11-20T16:39:44.460Z,14.87
2018-11-20T16:42:27.668Z,14.60
2018-11-20T16:45:11.205Z,15.83
2018-11-20T16:48:03.652Z,15.90
2018-11-20T16:50:51.996Z,14.80
2018-11-20T16:53:36.256Z,14.83
2018-11-20T16:56:23.072Z,15.37
2018-11-20T16:59:23.203Z,14.20
2018-11-20T17:02:17.485Z,15.20
2018-11-20T17:05:08.193Z,15.37
2018-11-20T17:07:56.261Z,14.50
2018-11-20T17:10:41.992Z,14.53
2018-11-20T17:13:48.399Z,16.20
2018-11-20T17:16:35.298Z,14.77
2018-11-20T17:19:21.871Z,14.63
2018-11-20T17:22:10.109Z,14.00
2018-11-20T17:25:07.597Z,14.20
2018-11-20T17:27:47.281Z,16.70
2018-11-20T17:30:32.211Z,14.77
2018-11-20T17:33:16.544Z,14.73
2018-11-20T17:36:03.440Z,16.03
2018-11-20T17:39:06.233Z,14.27
2018-11-20T17:42:00.654Z,15.63
2018-11-20T17:44:47.330Z,16.13
2018-11-20T17:47:23.606Z,16.47
2018-11-20T17:50:04.130Z,16.30
2018-11-20T17:52:54.263Z,14.17
2018-11-20T17:55:48.193Z,14.87
2018-11-20T17:58:31.193Z,16.03
2018-11-20T18:01:22.930Z,15.37
2018-11-20T18:04:20.376Z,15.43
2018-11-20T18:07:04.706Z,16.97
2018-11-20T18:09:46.650Z,15.67
2018-11-20T18:12:33.495Z,17.20
2018-11-20T18:15:24.636Z,14.93
2018-11-20T18:18:11.939Z,18.33
2018-11-20T18:20:54.190Z,16.73
2018-11-20T18:23:40.657Z,20.53
2018-11-20T18:26:27.319Z,18.27
2018-11-20T18:29:14.150Z,16.50
2018-11-20T18:32:05.607Z,17.23
2018-11-20T18:34:51.980Z,18.37
2018-11-20T18:37:35.847Z,16.07
2018-11-20T18:40:23.108Z,18.93
2018-11-20T18:42:59.784Z,16.37
2018-11-20T18:45:37.653Z,16.40
2018-11-20T18:48:24.455Z,17.27
2018-11-20T18:51:22.171Z,18.17
2018-11-20T18:54:00.338Z,18.27
2018-11-20T18:56:47.383Z,18.07
2018-11-20T18:59:44.106Z,15.97
2018-11-20T19:02:30.495Z,17.90
2018-11-20T19:05:18.550Z,17.70
2018-11-20T19:07:56.833Z,17.37
2018-11-20T19:10:57.688Z,21.13
2018-11-20T19:13:36.011Z,17.70
2018-11-20T19:16:23.582Z,17.40
2018-11-20T19:19:24.106Z,18.53
2018-11-20T19:22:12.241Z,15.70
2018-11-20T19:25:03.386Z,20.27
2018-11-20T19:27:51.385Z,18.73
2018-11-20T19:30:50.703Z,17.17
2018-11-20T19:33:35.017Z,16.13
2018-11-20T19:36:21.764Z,16.97
2018-11-20T19:39:09.085Z,19.57
2018-11-20T19:42:05.218Z,19.37
2018-11-20T19:44:49.725Z,17.83
2018-11-20T19:47:42.066Z,19.90
2018-11-20T19:50:30.696Z,17.63
2018-11-20T19:53:17.478Z,17.87
2018-11-20T19:56:01.149Z,20.03
2018-11-20T19:58:49.650Z,18.77
2018-11-20T20:01:36.336Z,18.43
2018-11-20T20:04:23.500Z,19.20
2018-11-20T20:07:01.870Z,21.40
2018-11-20T20:09:41.798Z,19.77
2018-11-20T20:12:34.136Z,18.07
2018-11-20T20:15:19.550Z,18.00
2018-11-20T20:18:13.004Z,21.07
2018-11-20T20:21:07.195Z,18.07
2018-11-20T20:24:13.539Z,20.80
2018-11-20T20:26:59.633Z,19.37
2018-11-20T20:29:46.256Z,19.87
2018-11-20T20:32:38.997Z,20.27
2018-11-20T20:35:35.144Z,19.80
2018-11-20T20:38:25.421Z,17.73
2018-11-20T20:41:11.883Z,20.77
2018-11-20T20:43:57.882Z,19.77
2018-11-20T20:46:44.427Z,21.60
2018-11-20T20:49:31.603Z,22.20
2018-11-20T20:52:08.684Z,23.30
2018-11-20T20:55:11.716Z,20.87
2018-11-20T20:57:51.976Z,20.37
2018-11-20T21:00:37.960Z,20.23
2018-11-20T21:03:25.398Z,21.70
2018-11-20T21:06:07.499Z,21.33
2018-11-20T21:08:57.523Z,20.97
2018-11-20T21:11:43.257Z,20.30
2018-11-20T21:14:33.711Z,23.43
2018-11-20T21:17:20.431Z,22.07
2018-11-20T21:20:06.307Z,21.03
2018-11-20T21:22:54.564Z,22.83
2018-11-20T21:25:41.023Z,24.57
2018-11-20T21:28:34.927Z,21.87
2018-11-20T21:31:21.707Z,21.60
2018-11-20T21:34:08.371Z,22.67
2018-11-20T21:36:48.611Z,26.20
2018-11-20T21:39:35.581Z,24.40
2018-11-20T21:42:11.838Z,23.00
2018-11-20T21:45:02.602Z,23.40
2018-11-20T21:47:49.327Z,24.30
2018-11-20T21:50:43.600Z,25.50
2018-11-20T21:53:27.380Z,24.33
2018-11-20T21:56:13.831Z,23.40
2018-11-20T21:59:00.471Z,22.93
2018-11-20T22:01:48.595Z,25.60
2018-11-20T22:04:36.850Z,25.23
2018-11-20T22:07:32.007Z,26.27
2018-11-20T22:10:18.929Z,22.60
2018-11-20T22:13:12.834Z,22.83
2018-11-20T22:15:59.652Z,24.83
2018-11-20T22:18:46.839Z,25.60
2018-11-20T22:21:40.775Z,23.77
2018-11-20T22:24:21.624Z,24.27
2018-11-20T22:27:08.977Z,24.47
2018-11-20T22:29:58.390Z,26.33
2018-11-20T22:32:47.231Z,24.77
2018-11-20T22:35:24.163Z,23.20
2018-11-20T22:38:11.494Z,25.23
2018-11-20T22:40:57.993Z,25.83
2018-11-20T22:44:01.242Z,27.67
2018-11-20T22:46:40.846Z,23.97
2018-11-20T22:49:43.905Z,24.03
2018-11-20T22:52:28.139Z,27.60
2018-11-20T22:55:05.608Z,24.60
2018-11-20T22:57:52.258Z,24.63
2018-11-20T23:00:49.554Z,23.33
2018-11-20T23:03:29.712Z,26.83
2018-11-20T23:06:06.155Z,25.03
2018-11-20T23:08:34.940Z,25.33
2018-11-20T23:11:04.063Z,23.83
2018-11-20T23:13:33.290Z,27.70
2018-11-20T23:16:02.149Z,24.43
2018-11-20T23:18:30.924Z,25.07
2018-11-20T23:21:00.141Z,25.67
2018-11-20T23:23:29.009Z,27.03
2018-11-20T23:25:58.344Z,29.10
2018-11-20T23:28:27.229Z,27.13
2018-11-20T23:30:56.010Z,25.57
2018-11-20T23:33:25.156Z,25.30
2018-11-20T23:35:54.254Z,24.83
2018-11-20T23:38:23.074Z,28.03
2018-11-20T23:40:51.865Z,25.00
2018-11-20T23:43:21.283Z,25.50
2018-11-20T23:45:50.082Z,28.00
2018-11-20T23:48:18.871Z,25.47
2018-11-20T23:50:47.730Z,27.00
2018-11-20T23:53:16.913Z,23.87
2018-11-20T23:55:45.704Z,23.07
2018-11-20T23:58:14.909Z,23.70
